createdAt,value
2022-08-23T00:01:21.204Z,54.83
2022-08-23T00:03:50.187Z,54.65
2022-08-23T00:06:18.613Z,54.42
2022-08-23T00:08:49.144Z,54.82
2022-08-23T00:11:30.030Z,54.94
2022-08-23T00:13:59.304Z,54.63
2022-08-23T00:16:27.792Z,54.50
2022-08-23T00:18:56.048Z,54.75
2022-08-23T00:21:24.917Z,54.86
2022-08-23T00:23:54.184Z,54.62
2022-08-23T00:26:22.191Z,54.94
2022-08-23T00:28:50.745Z,54.88
2022-08-23T00:31:19.058Z,54.48
2022-08-23T00:33:46.941Z,54.51
2022-08-23T00:36:14.921Z,54.60
2022-08-23T00:38:43.146Z,54.47
2022-08-23T00:41:12.546Z,54.88
2022-08-23T00:44:00.736Z,55.08
2022-08-23T00:47:02.617Z,55.53
2022-08-23T00:49:32.898Z,55.25
2022-08-23T00:52:07.486Z,55.54
2022-08-23T00:54:37.623Z,55.40
2022-08-23T00:57:11.948Z,55.21
2022-08-23T00:59:40.091Z,55.55
2022-08-23T01:02:10.060Z,55.79
2022-08-23T01:04:44.657Z,55.91
2022-08-23T01:07:19.081Z,55.70
2022-08-23T01:09:50.698Z,56.29
2022-08-23T01:12:32.809Z,56.25
2022-08-23T01:15:07.150Z,56.62
2022-08-23T01:17:42.466Z,56.48
2022-08-23T01:20:15.371Z,56.88
2022-08-23T01:22:51.047Z,57.10
2022-08-23T01:25:24.817Z,56.91
2022-08-23T01:27:53.281Z,57.13
2022-08-23T01:30:25.030Z,56.95
2022-08-23T01:32:56.844Z,57.18
2022-08-23T01:35:31.602Z,57.41
2022-08-23T01:38:00.188Z,57.51
2022-08-23T01:40:32.785Z,57.61
2022-08-23T01:43:02.160Z,57.54
2022-08-23T01:45:32.197Z,57.63
2022-08-23T01:48:02.289Z,57.75
2022-08-23T01:50:31.928Z,58.24
2022-08-23T01:53:01.257Z,57.86
2022-08-23T01:55:31.599Z,58.02
2022-08-23T01:58:03.055Z,58.60
2022-08-23T02:00:36.030Z,58.86
2022-08-23T02:03:05.305Z,58.78
2022-08-23T02:05:34.730Z,58.67
2022-08-23T02:08:23.394Z,58.87
2022-08-23T02:10:53.247Z,59.21
2022-08-23T02:13:22.134Z,59.25
2022-08-23T02:15:52.101Z,59.08
2022-08-23T02:18:22.142Z,59.53
2022-08-23T02:20:53.071Z,59.48
2022-08-23T02:23:22.823Z,59.61
2022-08-23T02:25:53.376Z,59.63
2022-08-23T02:28:23.319Z,59.72
2022-08-23T02:30:51.959Z,60.01
2022-08-23T02:33:20.556Z,59.64
2022-08-23T02:35:49.239Z,59.99
2022-08-23T02:38:18.415Z,60.26
2022-08-23T02:40:47.279Z,60.27
2022-08-23T02:43:23.852Z,60.13
2022-08-23T02:45:53.215Z,60.37
2022-08-23T02:48:22.769Z,60.19
2022-08-23T02:50:51.156Z,60.28
2022-08-23T02:53:19.829Z,60.29
2022-08-23T02:55:49.190Z,60.62
2022-08-23T02:58:17.589Z,60.67
2022-08-23T03:00:50.819Z,60.84
2022-08-23T03:03:20.381Z,60.79
2022-08-23T03:05:51.497Z,60.59
2022-08-23T03:08:20.489Z,60.57
2022-08-23T03:10:51.340Z,60.35
2022-08-23T03:13:20.584Z,60.61
2022-08-23T03:15:50.636Z,61.03
2022-08-23T03:18:19.083Z,61.17
2022-08-23T03:20:48.962Z,61.10
2022-08-23T03:23:17.248Z,61.45
2022-08-23T03:25:46.026Z,61.69
2022-08-23T03:28:14.343Z,61.49
2022-08-23T03:30:43.252Z,62.00
2022-08-23T03:33:13.269Z,62.03
2022-08-23T03:35:41.931Z,62.07
2022-08-23T03:38:10.604Z,62.28
2022-08-23T03:40:39.326Z,62.34
2022-08-23T03:43:07.605Z,62.28
2022-08-23T03:45:36.081Z,62.32
2022-08-23T03:48:04.911Z,62.77
2022-08-23T03:50:34.801Z,62.51
2022-08-23T03:53:03.171Z,62.78
2022-08-23T03:55:31.666Z,62.77
2022-08-23T03:58:01.693Z,63.15
2022-08-23T04:00:30.327Z,63.23
2022-08-23T04:02:58.650Z,63.55
2022-08-23T04:05:27.131Z,63.44
2022-08-23T04:07:56.971Z,63.62
2022-08-23T04:10:25.557Z,63.30
2022-08-23T04:12:55.104Z,63.77
2022-08-23T04:15:25.756Z,63.63
2022-08-23T04:17:53.987Z,63.78
2022-08-23T04:20:22.324Z,63.91
2022-08-23T04:22:55.129Z,63.88
2022-08-23T04:25:34.878Z,64.12
2022-08-23T04:28:04.288Z,64.04
2022-08-23T04:30:33.486Z,63.91
2022-08-23T04:33:02.193Z,63.84
2022-08-23T04:35:30.759Z,63.69
2022-08-23T04:37:59.059Z,64.06
2022-08-23T04:40:46.356Z,64.25
2022-08-23T04:43:14.610Z,64.40
2022-08-23T04:45:42.925Z,64.63
2022-08-23T04:48:12.084Z,64.60
2022-08-23T04:50:41.029Z,64.70
2022-08-23T04:53:09.355Z,64.48
2022-08-23T04:55:39.343Z,65.01
2022-08-23T04:58:07.822Z,65.09
2022-08-23T05:00:36.358Z,65.05
2022-08-23T05:03:04.658Z,65.42
2022-08-23T05:05:33.629Z,65.73
2022-08-23T05:08:02.014Z,65.60
2022-08-23T05:10:30.340Z,65.81
2022-08-23T05:13:00.054Z,65.95
2022-08-23T05:15:28.300Z,65.89
2022-08-23T05:17:56.448Z,66.13
2022-08-23T05:20:24.784Z,66.14
2022-08-23T05:22:53.243Z,66.32
2022-08-23T05:25:21.589Z,66.44
2022-08-23T05:27:49.770Z,66.16
2022-08-23T05:30:19.664Z,65.94
2022-08-23T05:32:47.852Z,65.89
2022-08-23T05:35:16.238Z,65.54
2022-08-23T05:37:44.471Z,65.60
2022-08-23T05:40:13.506Z,65.72
2022-08-23T05:42:42.599Z,65.35
2022-08-23T05:45:11.503Z,65.25
2022-08-23T05:47:42.077Z,65.08
2022-08-23T05:50:11.569Z,65.18
2022-08-23T05:52:39.917Z,64.75
2022-08-23T05:55:09.315Z,64.76
2022-08-23T05:57:38.530Z,64.99
2022-08-23T06:00:10.517Z,65.05
2022-08-23T06:02:38.858Z,64.82
2022-08-23T06:05:09.597Z,64.93
2022-08-23T06:07:38.410Z,64.54
2022-08-23T06:10:08.110Z,64.42
2022-08-23T06:12:44.060Z,63.83
2022-08-23T06:15:12.854Z,63.77
2022-08-23T06:17:41.895Z,63.69
2022-08-23T06:20:15.126Z,63.33
2022-08-23T06:22:43.497Z,63.09
2022-08-23T06:25:12.045Z,62.63
2022-08-23T06:27:40.422Z,62.32
2022-08-23T06:30:12.498Z,62.01
2022-08-23T06:32:42.250Z,61.83
2022-08-23T06:35:32.874Z,61.54
2022-08-23T06:38:04.785Z,60.78
2022-08-23T06:40:33.476Z,60.08
2022-08-23T06:43:01.932Z,59.84
2022-08-23T06:45:34.997Z,59.10
2022-08-23T06:48:03.919Z,58.64
2022-08-23T06:50:34.027Z,58.64
2022-08-23T06:53:02.492Z,57.97
2022-08-23T06:55:35.455Z,58.37
2022-08-23T06:58:04.617Z,57.10
2022-08-23T07:00:32.768Z,57.20
2022-08-23T07:03:01.165Z,56.65
2022-08-23T07:05:31.562Z,55.80
2022-08-23T07:08:01.202Z,55.83
2022-08-23T07:10:29.591Z,55.27
2022-08-23T07:12:58.024Z,54.85
2022-08-23T07:15:26.466Z,53.21
2022-08-23T07:17:54.840Z,53.64
2022-08-23T07:20:23.240Z,54.02
2022-08-23T07:22:51.591Z,52.81
2022-08-23T07:25:22.678Z,52.15
2022-08-23T07:27:51.047Z,52.65
2022-08-23T07:30:19.578Z,53.08
2022-08-23T07:32:47.898Z,52.79
2022-08-23T07:35:16.107Z,52.07
2022-08-23T07:37:44.545Z,51.72
2022-08-23T07:40:20.643Z,51.15
2022-08-23T07:42:51.119Z,51.33
2022-08-23T07:45:22.938Z,50.00
2022-08-23T07:47:51.633Z,50.93
2022-08-23T07:50:20.189Z,49.86
2022-08-23T07:52:48.572Z,48.76
2022-08-23T07:55:17.385Z,49.88
2022-08-23T07:57:45.827Z,48.75
2022-08-23T08:00:16.293Z,48.75
2022-08-23T08:02:44.684Z,49.13
2022-08-23T08:05:19.588Z,48.94
2022-08-23T08:07:50.116Z,48.28
2022-08-23T08:10:18.910Z,47.86
2022-08-23T08:12:47.547Z,47.06
2022-08-23T08:15:20.826Z,46.91
2022-08-23T08:17:49.616Z,47.24
2022-08-23T08:20:19.850Z,45.32
2022-08-23T08:22:53.744Z,45.38
2022-08-23T08:25:27.680Z,44.64
2022-08-23T08:27:56.017Z,44.44
2022-08-23T08:30:26.168Z,44.98
2022-08-23T08:32:54.951Z,43.13
2022-08-23T08:35:23.864Z,43.58
2022-08-23T08:37:53.764Z,42.96
2022-08-23T08:40:28.994Z,42.51
2022-08-23T08:43:29.916Z,42.55
2022-08-23T08:47:05.994Z,41.85
2022-08-23T09:00:52.700Z,40.40
2022-08-23T09:07:30.555Z,39.10
2022-08-23T09:13:55.595Z,39.76
2022-08-23T09:16:39.036Z,38.72
2022-08-23T09:19:07.520Z,37.91
2022-08-23T09:21:45.511Z,38.01
2022-08-23T09:24:15.050Z,37.73
2022-08-23T09:26:43.723Z,37.76
2022-08-23T09:29:21.125Z,37.91
2022-08-23T09:31:52.607Z,37.88
2022-08-23T09:34:39.795Z,37.40
2022-08-23T09:37:14.661Z,37.16
2022-08-23T09:39:52.100Z,37.11
2022-08-23T09:42:31.770Z,37.03
2022-08-23T09:45:00.116Z,37.40
2022-08-23T09:47:35.092Z,36.24
2022-08-23T09:50:18.964Z,35.51
2022-08-23T09:52:49.015Z,35.54
2022-08-23T09:55:32.450Z,35.50
2022-08-23T09:58:02.096Z,35.41
2022-08-23T10:00:37.966Z,35.58
2022-08-23T10:03:27.500Z,35.25
2022-08-23T10:05:57.369Z,35.39
2022-08-23T10:08:28.568Z,35.38
2022-08-23T10:11:03.862Z,35.13
2022-08-23T10:13:32.643Z,34.69
2022-08-23T10:16:11.151Z,34.92
2022-08-23T10:18:52.572Z,33.68
2022-08-23T10:21:26.577Z,33.75
2022-08-23T10:24:17.467Z,33.47
2022-08-23T10:27:00.419Z,33.58
2022-08-23T10:29:41.162Z,33.04
2022-08-23T10:32:22.857Z,32.30
2022-08-23T10:35:08.127Z,30.54
2022-08-23T10:37:54.818Z,31.24
2022-08-23T10:40:30.008Z,32.23
2022-08-23T10:43:13.178Z,31.58
2022-08-23T10:45:44.283Z,32.30
2022-08-23T10:48:22.337Z,30.67
2022-08-23T10:50:55.980Z,30.77
2022-08-23T10:53:28.563Z,31.66
2022-08-23T10:56:04.935Z,31.72
2022-08-23T10:58:39.930Z,31.20
2022-08-23T11:01:09.808Z,30.80
2022-08-23T11:03:44.817Z,30.18
2022-08-23T11:06:45.759Z,31.18
2022-08-23T11:09:46.141Z,29.99
2022-08-23T11:12:25.460Z,30.34
2022-08-23T11:15:12.699Z,30.45
2022-08-23T11:17:56.083Z,30.51
2022-08-23T11:21:03.626Z,29.60
2022-08-23T11:23:44.217Z,29.97
2022-08-23T11:26:36.686Z,30.03
2022-08-23T11:29:37.038Z,30.21
2022-08-23T11:32:47.448Z,30.03
2022-08-23T11:35:40.506Z,29.98
2022-08-23T11:38:12.026Z,30.63
2022-08-23T11:40:58.162Z,30.42
2022-08-23T11:43:31.607Z,29.85
2022-08-23T11:46:22.170Z,28.80
2022-08-23T11:49:02.032Z,29.43
2022-08-23T11:51:38.493Z,27.76
2022-08-23T11:54:27.531Z,29.44
2022-08-23T11:57:06.815Z,29.23
2022-08-23T12:00:03.132Z,30.06
2022-08-23T12:02:47.408Z,29.18
2022-08-23T12:05:32.600Z,28.97
2022-08-23T12:08:30.314Z,29.86
2022-08-23T12:11:10.968Z,29.85
2022-08-23T12:14:02.051Z,30.11
2022-08-23T12:16:44.097Z,29.40
2022-08-23T12:19:29.431Z,28.47
2022-08-23T12:22:06.573Z,28.52
2022-08-23T12:24:43.701Z,29.49
2022-08-23T12:27:26.681Z,28.98
2022-08-23T12:30:02.079Z,29.15
2022-08-23T12:32:37.247Z,28.79
2022-08-23T12:35:30.377Z,28.68
2022-08-23T12:38:04.536Z,29.50
2022-08-23T12:40:43.924Z,29.92
2022-08-23T12:43:23.377Z,29.25
2022-08-23T12:45:54.462Z,28.63
2022-08-23T12:48:26.032Z,28.64
2022-08-23T12:50:56.599Z,28.38
2022-08-23T12:53:30.070Z,29.63
2022-08-23T12:56:04.305Z,29.30
2022-08-23T12:58:34.812Z,28.69
2022-08-23T13:01:06.252Z,28.66
2022-08-23T13:03:37.056Z,29.23
2022-08-23T13:06:08.374Z,28.97
2022-08-23T13:08:48.884Z,29.30
2022-08-23T13:11:22.018Z,28.17
2022-08-23T13:13:50.350Z,28.76
2022-08-23T13:16:27.739Z,28.22
2022-08-23T13:18:56.925Z,27.98
2022-08-23T13:21:31.944Z,28.90
2022-08-23T13:24:39.233Z,29.37
2022-08-23T13:27:22.756Z,28.26
2022-08-23T13:29:56.549Z,27.84
2022-08-23T13:32:32.597Z,28.98
2022-08-23T13:35:31.417Z,28.71
2022-08-23T13:38:02.393Z,29.09
2022-08-23T13:40:34.671Z,28.85
2022-08-23T13:43:05.531Z,28.61
2022-08-23T13:45:46.120Z,29.08
2022-08-23T13:48:16.720Z,28.37
2022-08-23T13:50:45.372Z,29.05
2022-08-23T13:53:15.596Z,29.42
2022-08-23T13:55:48.705Z,28.90
2022-08-23T13:58:28.447Z,29.45
2022-08-23T14:00:59.024Z,29.17
2022-08-23T14:03:29.086Z,29.40
2022-08-23T14:05:56.995Z,29.95
2022-08-23T14:08:25.159Z,28.95
2022-08-23T14:10:54.837Z,29.38
2022-08-23T14:13:26.864Z,28.87
2022-08-23T14:15:57.238Z,29.04
2022-08-23T14:18:27.044Z,29.78
2022-08-23T14:20:55.340Z,29.37
2022-08-23T14:23:23.539Z,29.93
2022-08-23T14:25:56.062Z,29.79
2022-08-23T14:28:27.572Z,29.18
2022-08-23T14:30:58.042Z,30.04
2022-08-23T14:33:26.444Z,29.65
2022-08-23T14:35:54.555Z,30.61
2022-08-23T14:38:22.499Z,29.70
2022-08-23T14:40:55.757Z,30.29
2022-08-23T14:43:23.522Z,29.42
2022-08-23T14:45:55.347Z,29.61
2022-08-23T14:48:25.412Z,28.94
2022-08-23T14:50:54.293Z,29.29
2022-08-23T14:53:25.859Z,29.27
2022-08-23T14:56:18.868Z,29.69
2022-08-23T14:58:43.089Z,29.46
2022-08-23T15:01:12.944Z,29.88
2022-08-23T15:03:42.269Z,29.71
2022-08-23T15:06:10.653Z,28.71
2022-08-23T15:08:39.404Z,29.41
2022-08-23T15:14:00.326Z,30.55
2022-08-23T15:16:29.596Z,30.44
2022-08-23T15:18:59.824Z,30.46
2022-08-23T15:21:27.875Z,30.38
2022-08-23T15:23:55.812Z,30.13
2022-08-23T15:26:29.787Z,30.70
2022-08-23T15:28:58.039Z,29.84
2022-08-23T15:31:26.727Z,30.79
2022-08-23T15:33:54.720Z,31.01
2022-08-23T15:36:22.922Z,30.72
2022-08-23T15:38:52.600Z,31.16
2022-08-23T15:41:21.693Z,30.46
2022-08-23T15:43:51.010Z,30.06
2022-08-23T15:46:21.718Z,30.76
2022-08-23T15:48:54.254Z,30.34
2022-08-23T15:51:22.312Z,30.60
2022-08-23T15:53:50.225Z,30.14
2022-08-23T15:56:22.083Z,30.42
2022-08-23T15:58:54.655Z,31.14
2022-08-23T16:01:24.601Z,31.09
2022-08-23T16:03:53.083Z,31.28
2022-08-23T16:06:21.433Z,31.36
2022-08-23T16:08:53.682Z,32.15
2022-08-23T16:11:25.119Z,32.04
2022-08-23T16:13:55.769Z,31.82
2022-08-23T16:16:27.909Z,31.55
2022-08-23T16:18:57.862Z,31.64
2022-08-23T16:21:27.651Z,31.78
2022-08-23T16:23:56.972Z,32.14
2022-08-23T16:26:34.945Z,32.00
2022-08-23T16:29:07.236Z,32.23
2022-08-23T16:31:38.228Z,33.16
2022-08-23T16:34:11.031Z,32.92
2022-08-23T16:36:41.337Z,32.73
2022-08-23T16:39:10.890Z,32.99
2022-08-23T16:41:38.827Z,32.42
2022-08-23T16:44:08.491Z,32.86
2022-08-23T16:46:37.077Z,32.98
2022-08-23T16:49:05.228Z,32.64
2022-08-23T16:51:33.057Z,32.88
2022-08-23T16:54:02.984Z,32.81
2022-08-23T16:56:31.672Z,33.34
2022-08-23T16:59:00.268Z,33.98
2022-08-23T17:01:30.383Z,33.72
2022-08-23T17:03:58.276Z,33.87
2022-08-23T17:06:26.548Z,33.58
2022-08-23T17:08:54.459Z,33.99
2022-08-23T17:11:22.595Z,34.03
2022-08-23T17:13:53.236Z,33.82
2022-08-23T17:16:22.487Z,34.10
2022-08-23T17:18:57.001Z,34.17
2022-08-23T17:21:25.466Z,34.70
2022-08-23T17:23:53.768Z,34.07
2022-08-23T17:26:22.272Z,34.60
2022-08-23T17:28:50.311Z,35.58
2022-08-23T17:31:19.705Z,35.52
2022-08-23T17:33:47.702Z,35.09
2022-08-23T17:36:31.239Z,35.28
2022-08-23T17:38:59.756Z,34.93
2022-08-23T17:41:29.067Z,34.94
2022-08-23T17:44:01.729Z,35.61
2022-08-23T17:46:29.730Z,35.81
2022-08-23T17:48:58.287Z,35.95
2022-08-23T17:51:27.539Z,36.37
2022-08-23T17:53:55.380Z,35.62
2022-08-23T17:56:23.601Z,35.06
2022-08-23T17:58:53.911Z,36.16
2022-08-23T18:01:23.110Z,36.07
2022-08-23T18:03:51.590Z,36.06
2022-08-23T18:06:19.760Z,36.30
2022-08-23T18:08:49.279Z,36.53
2022-08-23T18:11:17.534Z,36.61
2022-08-23T18:13:46.050Z,36.84
2022-08-23T18:16:14.516Z,36.73
2022-08-23T18:18:42.599Z,37.14
2022-08-23T18:21:13.051Z,37.62
2022-08-23T18:23:41.875Z,37.32
2022-08-23T18:26:34.715Z,37.81
2022-08-23T18:29:01.654Z,38.02
2022-08-23T18:31:29.815Z,38.71
2022-08-23T18:34:00.503Z,39.03
2022-08-23T18:36:29.985Z,38.98
2022-08-23T18:38:58.673Z,39.01
2022-08-23T18:41:28.158Z,39.76
2022-08-23T18:43:55.994Z,40.01
2022-08-23T18:46:24.063Z,39.38
2022-08-23T18:48:53.394Z,39.78
2022-08-23T18:51:23.627Z,40.01
2022-08-23T18:53:51.659Z,39.77
2022-08-23T18:56:21.139Z,40.20
2022-08-23T18:58:53.110Z,40.45
2022-08-23T19:01:23.069Z,40.78
2022-08-23T19:03:51.424Z,40.71
2022-08-23T19:06:20.038Z,41.35
2022-08-23T19:08:48.080Z,41.43
2022-08-23T19:11:17.168Z,41.58
2022-08-23T19:13:45.539Z,42.00
2022-08-23T19:16:16.495Z,41.80
2022-08-23T19:18:46.653Z,42.16
2022-08-23T19:21:16.330Z,41.96
2022-08-23T19:23:44.364Z,41.92
2022-08-23T19:26:13.130Z,42.02
2022-08-23T19:28:42.408Z,42.29
2022-08-23T19:31:11.393Z,42.23
2022-08-23T19:33:40.748Z,42.75
2022-08-23T19:36:23.790Z,42.99
2022-08-23T19:39:00.112Z,43.17
2022-08-23T19:41:29.177Z,43.38
2022-08-23T19:43:57.093Z,43.16
2022-08-23T19:46:25.878Z,43.33
2022-08-23T19:48:55.607Z,43.81
2022-08-23T19:51:24.715Z,44.24
2022-08-23T19:54:11.306Z,43.90
2022-08-23T19:56:42.363Z,44.25
2022-08-23T19:59:12.272Z,44.26
2022-08-23T20:01:42.028Z,44.31
2022-08-23T20:04:12.714Z,44.66
2022-08-23T20:06:41.308Z,44.99
2022-08-23T20:09:10.273Z,44.97
2022-08-23T20:11:39.050Z,45.10
2022-08-23T20:14:10.124Z,45.40
2022-08-23T20:16:41.581Z,45.63
2022-08-23T20:19:11.682Z,45.83
2022-08-23T20:21:41.111Z,45.80
2022-08-23T20:24:09.818Z,45.57
2022-08-23T20:26:40.690Z,45.98
2022-08-23T20:29:10.420Z,45.75
2022-08-23T20:31:47.779Z,45.91
2022-08-23T20:34:17.729Z,46.01
2022-08-23T20:36:45.949Z,46.56
2022-08-23T20:39:14.003Z,46.69
2022-08-23T20:41:42.467Z,46.83
2022-08-23T20:44:10.456Z,47.27
2022-08-23T20:46:38.721Z,47.51
2022-08-23T20:49:07.274Z,47.83
2022-08-23T20:51:36.999Z,48.09
2022-08-23T20:54:05.312Z,48.04
2022-08-23T20:56:34.760Z,48.29
2022-08-23T20:59:02.854Z,48.40
2022-08-23T21:01:31.139Z,48.34
2022-08-23T21:04:00.396Z,48.45
2022-08-23T21:06:30.613Z,48.35
2022-08-23T21:09:01.374Z,48.51
2022-08-23T21:11:32.111Z,48.56
2022-08-23T21:14:00.088Z,48.42
2022-08-23T21:16:28.188Z,48.41
2022-08-23T21:18:56.893Z,48.86
2022-08-23T21:21:25.511Z,48.97
2022-08-23T21:23:54.846Z,49.10
2022-08-23T21:26:24.973Z,49.34
2022-08-23T21:28:53.759Z,49.52
2022-08-23T21:31:25.851Z,49.54
2022-08-23T21:33:54.807Z,49.80
2022-08-23T21:36:24.542Z,49.59
2022-08-23T21:38:52.527Z,50.06
2022-08-23T21:41:42.496Z,50.86
2022-08-23T21:44:13.702Z,50.49
2022-08-23T21:46:42.463Z,50.64
2022-08-23T21:49:12.372Z,50.83
2022-08-23T21:51:41.054Z,51.24
2022-08-23T21:54:10.566Z,51.40
2022-08-23T21:56:40.513Z,51.33
2022-08-23T21:59:12.417Z,51.54
2022-08-23T22:01:42.196Z,51.46
2022-08-23T22:04:13.066Z,51.87
2022-08-23T22:06:42.682Z,52.03
2022-08-23T22:09:14.935Z,52.09
2022-08-23T22:11:45.547Z,52.37
2022-08-23T22:14:16.747Z,52.50
2022-08-23T22:16:45.593Z,52.70
2022-08-23T22:19:15.124Z,52.52
2022-08-23T22:21:43.204Z,52.64
2022-08-23T22:24:11.523Z,52.95
2022-08-23T22:26:40.810Z,53.01
2022-08-23T22:29:11.217Z,53.10
2022-08-23T22:31:39.522Z,53.04
2022-08-23T22:34:10.122Z,53.41
2022-08-23T22:36:38.056Z,53.26
2022-08-23T22:39:06.688Z,53.43
2022-08-23T22:41:35.521Z,53.49
2022-08-23T22:44:04.184Z,54.08
2022-08-23T22:46:35.415Z,54.36
2022-08-23T22:49:03.652Z,54.19
2022-08-23T22:51:33.777Z,54.51
2022-08-23T22:54:09.090Z,54.84
2022-08-23T22:56:41.242Z,55.16
2022-08-23T22:59:10.499Z,55.11
2022-08-23T23:01:45.276Z,55.51
2022-08-23T23:04:17.948Z,55.41
2022-08-23T23:06:46.116Z,55.34
2022-08-23T23:09:14.699Z,55.60
2022-08-23T23:11:43.706Z,55.74
2022-08-23T23:14:11.803Z,55.71
2022-08-23T23:16:41.308Z,56.16
2022-08-23T23:19:27.470Z,56.36
2022-08-23T23:21:58.358Z,56.04
2022-08-23T23:24:29.896Z,56.17
2022-08-23T23:26:59.051Z,56.46
2022-08-23T23:29:27.907Z,56.36
2022-08-23T23:31:57.642Z,56.31
2022-08-23T23:34:26.559Z,56.37
2022-08-23T23:36:56.991Z,56.53
2022-08-23T23:39:25.579Z,56.54
2022-08-23T23:41:53.847Z,56.51
2022-08-23T23:44:31.331Z,56.85
2022-08-23T23:47:02.178Z,56.98
2022-08-23T23:49:32.316Z,57.27
2022-08-23T23:52:01.684Z,57.50
2022-08-23T23:54:30.000Z,57.65
2022-08-23T23:56:57.892Z,58.34
2022-08-23T23:59:27.035Z,58.33
